Airfield :
LOGIN :

Register | Disclaimer

   EN    FR    IT 

 










Legend :    VFR   Marginal VFR   IFR   Intensive IFR   Very Intensive IFR
Visi :
Ceiling :
>= 8 km
>= 3000ft
5 to 8 km
1000 to 3000 ft
1500m to 5 km
500 to 1000 ft
800 to 1500m
200 to 500 ft
< 800m
< 200 ft
Symbols :   Thunderstorms  Fog  Heavy snow  Heavy precipitations  Wind > 20 kt
SIGMETs :     Misc.  Thunderstorms  Icing  Turbulence  Mountain Waves  Volcanic Ashes







- Airport Elevation : 574 ft
- IATA code : NDR


GMMW - Nador El Aroui

CURRENT METAR :
  • 230100Z 16002KT 8000 FEW020 13/10 Q1017 NOSIG

EXPIRED METARs :
  • 230000Z 29002KT 8000 FEW020 15/10 Q1017 NOSIG
  • 222300Z 22003KT 8000 FEW020 15/11 Q1018 NOSIG
  • 222200Z VRB02KT 9999 FEW020 15/11 Q1018 NOSIG

TAF TAF GMMW
Valid from the 23 at 00:00 until the 24 at 06:00 UTC


222300Z 2300/2406 VRB02KT 8000 FEW020
PROB30 2303/2307 3000 BR SCT008
BECMG 2308/2310 03010KT NSC
No reported NOTAMs for that airfield.
1 SIGMET reported for the Casablanca FIR (GMMM) :
 
Embedded thunderstorms
GMMM SIGMET 04 VALID 222200/230200 GMMC
GMMM CASABLANCA FIR EMBD TS FCST W OF LINE N2926 W00726 - N3058 W008 58 - N3303 W00447 - N3322 W00154 TOP FL380 MOV E WKN=



MET'MAP, your aeronautical weather chart ! - Copyright ORBIFLY December 2007 - Disclaimer

ORBIFLY MET'MAP TEAM :

Programming & Development : Alexandra Zaïnal
Concept & Development : Baudouin d'Aumeries
Co-Development & Prog : Marc-Olivier Méhu
Technical & hardware support : Manuel Goepfert

Contact : metmap@orbifly.com




SOURCES & CREDITS :

   NOAA